createdAt,value
2019-04-22T00:01:24.444Z,14.10
2019-04-22T00:03:55.215Z,14.00
2019-04-22T00:06:44.286Z,14.00
2019-04-22T00:09:17.728Z,14.00
2019-04-22T00:12:00.403Z,14.00
2019-04-22T00:14:14.991Z,14.00
2019-04-22T00:16:51.919Z,14.00
2019-04-22T00:19:26.524Z,14.00
2019-04-22T00:21:55.501Z,14.00
2019-04-22T00:24:23.952Z,14.00
2019-04-22T00:26:59.495Z,14.00
2019-04-22T00:29:44.865Z,13.90
2019-04-22T00:32:00.016Z,14.00
2019-04-22T00:34:37.096Z,13.90
2019-04-22T00:37:11.355Z,13.90
2019-04-22T00:39:40.913Z,13.90
2019-04-22T00:42:10.916Z,13.80
2019-04-22T00:44:45.143Z,13.80
2019-04-22T00:47:21.770Z,13.90
2019-04-22T00:52:15.551Z,13.80
2019-04-22T00:54:48.960Z,13.90
2019-04-22T00:57:19.953Z,13.90
2019-04-22T00:59:48.491Z,13.90
2019-04-22T01:02:20.226Z,13.90
2019-04-22T01:05:07.925Z,13.80
2019-04-22T01:07:17.611Z,13.70
2019-04-22T01:09:51.998Z,13.70
2019-04-22T01:12:28.445Z,13.70
2019-04-22T01:14:59.236Z,13.70
2019-04-22T01:17:30.737Z,13.80
2019-04-22T01:19:59.770Z,13.80
2019-04-22T01:22:23.764Z,13.70
2019-04-22T01:24:59.298Z,13.70
2019-04-22T01:27:23.428Z,13.70
2019-04-22T01:29:46.571Z,13.70
2019-04-22T01:32:13.201Z,13.60
2019-04-22T01:34:52.408Z,13.60
2019-04-22T01:37:31.268Z,13.60
2019-04-22T01:40:04.772Z,13.50
2019-04-22T01:42:43.278Z,13.40
2019-04-22T01:45:12.085Z,13.30
2019-04-22T01:47:36.691Z,13.20
2019-04-22T01:50:06.180Z,13.10
2019-04-22T01:52:38.271Z,13.10
2019-04-22T01:55:21.945Z,13.00
2019-04-22T01:57:44.467Z,13.00
2019-04-22T02:00:09.144Z,13.10
2019-04-22T02:02:42.248Z,13.10
2019-04-22T02:05:18.980Z,13.00
2019-04-22T02:07:46.830Z,13.00
2019-04-22T02:10:20.052Z,12.90
2019-04-22T02:12:48.419Z,13.00
2019-04-22T02:15:19.269Z,12.90
2019-04-22T02:17:56.285Z,13.00
2019-04-22T02:20:22.536Z,13.00
2019-04-22T02:23:43.281Z,13.00
2019-04-22T02:25:57.659Z,13.00
2019-04-22T02:28:35.628Z,13.00
2019-04-22T02:31:16.923Z,12.90
2019-04-22T02:33:52.649Z,12.90
2019-04-22T02:46:29.467Z,13.00
2019-04-22T02:51:12.538Z,12.90
2019-04-22T02:54:17.213Z,12.80
2019-04-22T02:56:25.570Z,12.70
2019-04-22T03:08:51.624Z,12.30
2019-04-22T03:11:18.952Z,12.30
2019-04-22T03:13:55.938Z,12.30
2019-04-22T03:18:49.742Z,12.40
2019-04-22T03:21:17.964Z,12.40
2019-04-22T03:24:09.800Z,12.50
2019-04-22T03:26:27.216Z,12.50
2019-04-22T03:29:07.222Z,12.50
2019-04-22T03:42:07.677Z,12.60
2019-04-22T03:49:52.090Z,12.60
2019-04-22T03:52:10.819Z,12.60
2019-04-22T03:54:56.506Z,12.60
2019-04-22T04:02:15.695Z,12.50
2019-04-22T04:07:20.502Z,12.50
2019-04-22T04:09:42.608Z,12.50
2019-04-22T04:12:13.907Z,12.50
2019-04-22T04:14:53.680Z,12.50
2019-04-22T04:20:03.885Z,12.50
2019-04-22T04:22:33.975Z,12.50
2019-04-22T04:25:05.765Z,12.50
2019-04-22T04:27:34.299Z,12.50
2019-04-22T04:42:33.022Z,12.50
2019-04-22T04:45:15.710Z,12.50
2019-04-22T04:50:05.839Z,12.50
2019-04-22T04:52:39.624Z,12.60
2019-04-22T04:55:14.396Z,13.30
2019-04-22T04:57:43.504Z,13.90
2019-04-22T05:02:37.935Z,14.80
2019-04-22T05:05:20.633Z,15.10
2019-04-22T05:07:44.286Z,15.50
2019-04-22T05:10:17.089Z,15.90
2019-04-22T05:15:12.025Z,16.30
2019-04-22T05:17:43.350Z,16.60
2019-04-22T05:20:13.466Z,16.70
2019-04-22T05:37:40.357Z,15.50
2019-04-22T05:40:16.693Z,15.40
2019-04-22T05:42:34.230Z,15.30
2019-04-22T05:47:46.357Z,15.00
2019-04-22T05:50:14.483Z,14.80
2019-04-22T05:52:54.406Z,14.80
2019-04-22T05:55:22.451Z,14.80
2019-04-22T05:57:54.484Z,14.80
2019-04-22T06:00:35.372Z,14.70
2019-04-22T06:02:56.632Z,14.60
2019-04-22T06:05:24.504Z,14.50
2019-04-22T06:08:02.414Z,14.50
2019-04-22T06:10:34.439Z,14.70
2019-04-22T06:12:59.685Z,15.10
2019-04-22T06:15:44.171Z,15.40
2019-04-22T06:18:16.215Z,15.50
2019-04-22T06:20:43.423Z,16.00
2019-04-22T06:23:12.456Z,16.70
2019-04-22T06:28:23.677Z,17.90
2019-04-22T06:30:43.501Z,18.10
2019-04-22T06:33:15.316Z,18.40
2019-04-22T06:35:50.100Z,18.90
2019-04-22T06:38:30.192Z,19.00
2019-04-22T06:40:46.785Z,19.30
2019-04-22T06:43:20.013Z,19.60
2019-04-22T06:45:45.353Z,19.70
2019-04-22T06:50:47.753Z,20.30
2019-04-22T06:53:25.033Z,20.50
2019-04-22T06:55:51.669Z,20.60
2019-04-22T06:58:20.050Z,21.00
2019-04-22T07:00:56.692Z,21.30
2019-04-22T07:05:51.800Z,21.70
2019-04-22T07:08:59.266Z,21.80
2019-04-22T07:10:58.267Z,22.00
2019-04-22T07:13:27.263Z,22.10
2019-04-22T07:15:57.489Z,22.00
2019-04-22T07:18:35.753Z,22.10
2019-04-22T07:21:02.759Z,22.30
2019-04-22T07:23:33.109Z,22.50
2019-04-22T07:26:04.649Z,22.50
2019-04-22T07:28:30.003Z,22.60
2019-04-22T07:31:04.049Z,22.60
2019-04-22T07:33:40.666Z,22.60
2019-04-22T07:38:54.469Z,22.70
2019-04-22T07:41:05.339Z,22.80
2019-04-22T07:46:13.703Z,23.10
2019-04-22T07:48:46.753Z,22.90
2019-04-22T07:51:28.183Z,22.70
2019-04-22T07:53:39.441Z,22.80
2019-04-22T07:56:19.025Z,23.00
2019-04-22T07:58:45.758Z,22.90
2019-04-22T08:04:07.534Z,22.40
2019-04-22T08:06:23.409Z,22.00
2019-04-22T08:08:58.368Z,21.80
2019-04-22T08:11:37.445Z,21.70
2019-04-22T08:13:49.836Z,21.50
2019-04-22T08:16:26.353Z,21.40
2019-04-22T08:18:55.838Z,21.40
2019-04-22T08:21:22.221Z,21.50
2019-04-22T08:23:56.870Z,21.40
2019-04-22T08:26:30.476Z,21.40
2019-04-22T08:29:03.898Z,21.40
2019-04-22T08:34:03.014Z,21.40
2019-04-22T08:36:31.567Z,21.50
2019-04-22T08:39:07.959Z,21.50
2019-04-22T08:44:13.410Z,21.60
2019-04-22T08:49:05.380Z,21.60
2019-04-22T08:51:36.258Z,21.40
2019-04-22T08:54:13.823Z,21.40
2019-04-22T08:56:45.725Z,21.40
2019-04-22T08:59:12.181Z,21.40
2019-04-22T09:01:37.984Z,21.40
2019-04-22T09:04:14.620Z,21.30
2019-04-22T09:07:02.432Z,21.20
2019-04-22T09:09:24.993Z,21.20
2019-04-22T09:11:47.048Z,21.10
2019-04-22T09:14:24.308Z,21.00
2019-04-22T09:16:48.494Z,21.00
2019-04-22T09:19:17.947Z,20.90
2019-04-22T09:21:55.997Z,21.00
2019-04-22T09:24:23.213Z,21.20
2019-04-22T09:26:53.961Z,21.30
2019-04-22T09:29:32.576Z,21.30
2019-04-22T09:32:01.816Z,21.10
2019-04-22T09:34:27.770Z,21.00
2019-04-22T09:37:08.091Z,21.00
2019-04-22T09:42:03.022Z,21.10
2019-04-22T09:44:37.320Z,21.10
2019-04-22T09:47:00.686Z,21.20
2019-04-22T09:49:36.973Z,21.30
2019-04-22T09:52:06.296Z,21.40
2019-04-22T09:57:09.546Z,21.30
2019-04-22T09:59:35.045Z,21.30
2019-04-22T10:02:20.135Z,21.30
2019-04-22T10:04:44.900Z,21.40
2019-04-22T10:07:19.144Z,21.30
2019-04-22T10:12:32.496Z,20.90
2019-04-22T10:14:45.448Z,21.00
2019-04-22T10:17:15.509Z,21.10
2019-04-22T10:19:51.488Z,21.10
2019-04-22T10:22:23.922Z,21.20
2019-04-22T10:24:44.604Z,21.30
2019-04-22T10:27:16.196Z,21.30
2019-04-22T10:29:54.028Z,21.30
2019-04-22T10:32:22.275Z,21.20
2019-04-22T10:34:38.744Z,21.30
2019-04-22T10:37:05.684Z,21.40
2019-04-22T10:39:43.927Z,21.40
2019-04-22T10:42:07.072Z,21.40
2019-04-22T10:44:37.344Z,21.40
2019-04-22T10:47:06.700Z,21.30
2019-04-22T10:49:36.186Z,21.20
2019-04-22T10:52:06.700Z,21.20
2019-04-22T10:54:36.090Z,21.30
2019-04-22T10:57:06.606Z,21.30
2019-04-22T10:59:36.485Z,21.20
2019-04-22T11:02:05.822Z,21.20
2019-04-22T11:04:36.365Z,21.20
2019-04-22T11:07:10.093Z,21.20
2019-04-22T11:09:49.419Z,21.20
2019-04-22T11:12:13.626Z,21.30
2019-04-22T11:14:41.412Z,21.20
2019-04-22T11:17:09.529Z,21.30
2019-04-22T11:19:39.477Z,21.40
2019-04-22T11:22:16.874Z,21.40
2019-04-22T11:24:41.079Z,21.40
2019-04-22T11:27:10.705Z,21.40
2019-04-22T11:29:41.559Z,21.40
2019-04-22T11:32:11.007Z,21.30
2019-04-22T11:34:40.368Z,21.30
2019-04-22T11:37:10.234Z,21.40
2019-04-22T11:39:40.777Z,21.30
2019-04-22T11:42:10.095Z,21.30
2019-04-22T11:44:39.315Z,21.30
2019-04-22T11:47:09.663Z,21.30
2019-04-22T11:49:39.709Z,21.30
2019-04-22T11:52:11.337Z,21.30
2019-04-22T11:54:41.269Z,21.40
2019-04-22T11:57:10.873Z,21.40
2019-04-22T11:59:40.754Z,21.40
2019-04-22T12:02:11.042Z,21.40
2019-04-22T12:04:41.351Z,21.50
2019-04-22T12:07:10.979Z,21.30
2019-04-22T12:09:41.685Z,21.30
2019-04-22T12:12:12.154Z,21.30
2019-04-22T12:14:42.445Z,21.20
2019-04-22T12:17:11.785Z,21.20
2019-04-22T12:19:42.042Z,21.30
2019-04-22T12:22:11.523Z,21.40
2019-04-22T12:24:42.463Z,21.40
2019-04-22T12:27:11.984Z,21.30
2019-04-22T12:29:41.162Z,21.40
2019-04-22T12:32:11.593Z,21.40
2019-04-22T12:34:41.952Z,21.40
2019-04-22T12:37:14.864Z,21.40
2019-04-22T12:39:43.337Z,21.40
2019-04-22T12:42:13.172Z,21.40
2019-04-22T12:44:44.115Z,21.40
2019-04-22T12:47:14.842Z,21.40
2019-04-22T12:49:49.306Z,21.50
2019-04-22T12:52:25.537Z,21.50
2019-04-22T12:54:46.894Z,21.60
2019-04-22T12:57:16.815Z,21.60
2019-04-22T12:59:46.135Z,21.60
2019-04-22T13:02:15.536Z,21.60
2019-04-22T13:04:45.999Z,21.50
2019-04-22T13:07:15.743Z,21.40
2019-04-22T13:09:45.395Z,21.40
2019-04-22T13:12:15.185Z,21.40
2019-04-22T13:14:45.532Z,21.50
2019-04-22T13:17:15.708Z,21.60
2019-04-22T13:19:45.991Z,21.60
2019-04-22T13:22:16.888Z,21.60
2019-04-22T13:24:46.208Z,21.50
2019-04-22T13:27:17.111Z,21.50
2019-04-22T13:29:46.878Z,21.50
2019-04-22T13:32:16.590Z,21.50
2019-04-22T13:34:50.321Z,21.50
2019-04-22T13:37:17.028Z,21.40
2019-04-22T13:39:47.305Z,21.50
2019-04-22T13:42:21.318Z,21.50
2019-04-22T13:44:47.561Z,21.60
2019-04-22T13:47:37.418Z,21.60
2019-04-22T13:50:27.596Z,21.50
2019-04-22T13:52:53.613Z,21.40
2019-04-22T13:55:22.084Z,21.40
2019-04-22T13:57:42.577Z,21.40
2019-04-22T13:59:56.432Z,21.50
2019-04-22T14:02:46.607Z,21.40
2019-04-22T14:05:18.927Z,21.40
2019-04-22T14:07:49.011Z,21.40
2019-04-22T14:10:20.692Z,21.30
2019-04-22T14:12:50.931Z,21.40
2019-04-22T14:15:22.407Z,21.40
2019-04-22T14:17:52.777Z,21.40
2019-04-22T14:20:25.654Z,21.40
2019-04-22T14:22:54.789Z,21.30
2019-04-22T14:25:24.859Z,21.40
2019-04-22T14:28:01.496Z,21.40
2019-04-22T14:30:26.322Z,21.40
2019-04-22T14:32:55.992Z,21.30
2019-04-22T14:35:27.089Z,21.30
2019-04-22T14:37:56.511Z,21.30
2019-04-22T14:40:28.132Z,21.20
2019-04-22T14:43:23.375Z,21.20
2019-04-22T14:46:04.654Z,21.10
2019-04-22T14:48:24.773Z,21.10
2019-04-22T14:50:51.859Z,21.10
2019-04-22T14:53:20.719Z,21.10
2019-04-22T14:55:36.021Z,21.10
2019-04-22T14:58:02.950Z,21.00
2019-04-22T15:00:33.788Z,21.00
2019-04-22T15:03:03.885Z,21.00
2019-04-22T15:05:34.368Z,20.90
2019-04-22T15:08:03.759Z,20.90
2019-04-22T15:10:33.763Z,20.80
2019-04-22T15:13:03.181Z,20.80
2019-04-22T15:15:45.806Z,20.80
2019-04-22T15:18:28.336Z,20.80
2019-04-22T15:21:00.891Z,20.90
2019-04-22T15:23:31.018Z,20.90
2019-04-22T15:26:00.384Z,20.80
2019-04-22T15:28:29.627Z,20.80
2019-04-22T15:30:59.499Z,20.60
2019-04-22T15:33:29.637Z,20.60
2019-04-22T15:35:59.131Z,20.60
2019-04-22T15:38:28.396Z,20.50
2019-04-22T15:40:58.653Z,20.50
2019-04-22T15:43:30.914Z,20.50
2019-04-22T15:46:02.309Z,20.40
2019-04-22T15:48:32.301Z,20.50
2019-04-22T15:51:00.608Z,20.50
2019-04-22T15:53:29.910Z,20.50
2019-04-22T15:55:59.062Z,20.50
2019-04-22T15:58:28.303Z,20.40
2019-04-22T16:01:08.839Z,20.40
2019-04-22T16:03:28.972Z,20.40
2019-04-22T16:05:59.703Z,20.30
2019-04-22T16:08:30.835Z,20.30
2019-04-22T16:11:00.041Z,20.20
2019-04-22T16:13:32.363Z,20.10
2019-04-22T16:16:00.655Z,20.00
2019-04-22T16:18:30.718Z,20.10
2019-04-22T16:21:00.311Z,20.00
2019-04-22T16:23:38.236Z,20.00
2019-04-22T16:26:32.559Z,19.90
2019-04-22T16:29:03.322Z,19.90
2019-04-22T16:31:33.617Z,19.90
2019-04-22T16:34:03.000Z,19.80
2019-04-22T16:36:32.145Z,19.80
2019-04-22T16:39:02.492Z,19.70
2019-04-22T16:41:32.773Z,19.70
2019-04-22T16:44:02.704Z,19.70
2019-04-22T16:46:32.132Z,19.60
2019-04-22T16:49:01.515Z,19.60
2019-04-22T16:51:31.903Z,19.50
2019-04-22T16:54:02.154Z,19.40
2019-04-22T16:56:33.949Z,19.40
2019-04-22T16:59:02.475Z,19.40
2019-04-22T17:02:01.116Z,19.30
2019-04-22T17:04:49.043Z,19.30
2019-04-22T17:07:20.582Z,19.20
2019-04-22T17:09:50.061Z,19.20
2019-04-22T17:12:19.625Z,19.10
2019-04-22T17:14:55.944Z,19.00
2019-04-22T17:17:20.325Z,19.10
2019-04-22T17:19:51.247Z,18.90
2019-04-22T17:22:21.739Z,18.90
2019-04-22T17:24:51.570Z,18.80
2019-04-22T17:27:22.269Z,18.70
2019-04-22T17:29:52.481Z,18.60
2019-04-22T17:32:23.473Z,18.60
2019-04-22T17:34:53.835Z,18.60
2019-04-22T17:37:26.629Z,18.50
2019-04-22T17:40:10.702Z,18.40
2019-04-22T17:42:46.410Z,18.30
2019-04-22T17:45:42.352Z,18.30
2019-04-22T17:48:27.675Z,18.20
2019-04-22T17:51:06.529Z,18.10
2019-04-22T17:53:34.894Z,18.00
2019-04-22T17:56:02.150Z,17.90
2019-04-22T17:58:40.243Z,17.80
2019-04-22T18:01:04.360Z,17.70
2019-04-22T18:03:24.113Z,17.70
2019-04-22T18:05:52.206Z,17.60
2019-04-22T18:08:34.852Z,17.50
2019-04-22T18:11:07.929Z,17.40
2019-04-22T18:13:38.200Z,17.30
2019-04-22T18:16:09.879Z,17.20
2019-04-22T18:18:43.614Z,17.20
2019-04-22T18:21:05.089Z,17.10
2019-04-22T18:23:27.217Z,17.10
2019-04-22T18:26:14.117Z,16.90
2019-04-22T18:28:43.549Z,16.90
2019-04-22T18:31:13.898Z,16.80
2019-04-22T18:33:46.094Z,16.80
2019-04-22T18:36:16.826Z,16.70
2019-04-22T18:38:51.481Z,16.60
2019-04-22T18:41:12.565Z,16.50
2019-04-22T18:43:57.573Z,16.50
2019-04-22T18:46:25.409Z,16.40
2019-04-22T18:48:53.833Z,16.30
2019-04-22T18:51:29.408Z,16.30
2019-04-22T18:54:31.100Z,16.30
2019-04-22T18:57:02.579Z,16.20
2019-04-22T18:59:22.746Z,16.10
2019-04-22T19:01:48.264Z,16.20
2019-04-22T19:04:26.561Z,16.10
2019-04-22T19:07:07.273Z,16.00
2019-04-22T19:09:53.234Z,16.00
2019-04-22T19:12:22.272Z,15.90
2019-04-22T19:14:52.961Z,15.90
2019-04-22T19:17:29.340Z,15.80
2019-04-22T19:19:54.110Z,15.70
2019-04-22T19:22:16.266Z,15.70
2019-04-22T19:24:41.893Z,15.70
2019-04-22T19:27:15.711Z,15.60
2019-04-22T19:29:55.866Z,15.50
2019-04-22T19:32:21.069Z,15.50
2019-04-22T19:34:47.828Z,15.50
2019-04-22T19:37:17.386Z,15.40
2019-04-22T19:40:06.270Z,15.40
2019-04-22T19:42:30.519Z,15.40
2019-04-22T19:45:00.847Z,15.20
2019-04-22T19:47:45.016Z,15.20
2019-04-22T19:50:24.507Z,15.10
2019-04-22T19:52:53.556Z,15.10
2019-04-22T19:55:32.020Z,15.10
2019-04-22T19:58:07.367Z,15.00
2019-04-22T20:01:22.114Z,14.90
2019-04-22T20:06:41.352Z,14.80
2019-04-22T20:09:23.825Z,14.70
2019-04-22T20:12:00.934Z,14.60
2019-04-22T20:14:43.577Z,14.60
2019-04-22T20:17:23.289Z,14.50
2019-04-22T20:20:17.459Z,14.50
2019-04-22T20:22:30.317Z,14.40
2019-04-22T20:24:59.583Z,14.30
2019-04-22T20:27:49.935Z,14.30
2019-04-22T20:30:17.360Z,14.20
2019-04-22T20:32:52.598Z,14.20
2019-04-22T20:35:41.871Z,14.10
2019-04-22T20:38:14.911Z,14.00
2019-04-22T20:40:47.342Z,13.90
2019-04-22T20:43:33.745Z,13.90
2019-04-22T20:46:07.312Z,13.80
2019-04-22T20:48:43.790Z,13.70
2019-04-22T20:51:19.491Z,13.60
2019-04-22T20:53:56.703Z,13.50
2019-04-22T20:56:30.149Z,13.50
2019-04-22T20:59:08.518Z,13.40
2019-04-22T21:01:40.028Z,13.30
2019-04-22T21:03:57.263Z,13.40
2019-04-22T21:06:42.897Z,13.20
2019-04-22T21:09:18.114Z,13.20
2019-04-22T21:11:38.929Z,13.10
2019-04-22T21:14:12.055Z,13.10
2019-04-22T21:16:50.177Z,13.00
2019-04-22T21:19:21.547Z,13.00
2019-04-22T21:21:54.692Z,13.00
2019-04-22T21:24:18.568Z,12.90
2019-04-22T21:26:47.063Z,12.80
2019-04-22T21:29:16.834Z,12.70
2019-04-22T21:31:54.870Z,12.70
2019-04-22T21:34:20.321Z,12.70
2019-04-22T21:37:03.908Z,12.60
2019-04-22T21:39:27.466Z,12.60
2019-04-22T21:41:57.002Z,12.60
2019-04-22T21:44:26.130Z,12.60
2019-04-22T21:47:12.630Z,12.50
2019-04-22T21:49:38.358Z,12.50
2019-04-22T21:52:01.581Z,12.40
2019-04-22T21:54:45.315Z,12.40
2019-04-22T21:57:24.653Z,12.30
2019-04-22T21:59:51.028Z,12.20
2019-04-22T22:02:28.154Z,12.20
2019-04-22T22:04:52.794Z,12.20
2019-04-22T22:07:13.930Z,12.20
2019-04-22T22:09:54.646Z,12.10
2019-04-22T22:12:34.984Z,12.10
2019-04-22T22:15:05.364Z,12.10
2019-04-22T22:17:31.255Z,12.00
2019-04-22T22:19:57.570Z,12.00
2019-04-22T22:25:01.188Z,12.00
2019-04-22T22:27:37.453Z,11.90
2019-04-22T22:30:22.982Z,11.90
2019-04-22T22:32:35.422Z,11.80
2019-04-22T22:35:06.723Z,11.80
2019-04-22T22:37:28.386Z,11.70
2019-04-22T22:39:57.970Z,11.80
2019-04-22T22:42:30.171Z,11.70
2019-04-22T22:45:02.316Z,11.70
2019-04-22T22:47:42.278Z,11.70
2019-04-22T22:50:12.854Z,11.60
2019-04-22T22:53:15.393Z,11.60
2019-04-22T22:55:16.366Z,11.50
2019-04-22T22:57:44.528Z,11.50
2019-04-22T23:00:15.877Z,11.50
2019-04-22T23:03:03.546Z,11.40
2019-04-22T23:05:29.072Z,11.50
2019-04-22T23:07:54.261Z,11.40
2019-04-22T23:10:19.735Z,11.40
2019-04-22T23:12:58.179Z,11.30
2019-04-22T23:15:20.407Z,11.30
2019-04-22T23:17:37.006Z,11.30
2019-04-22T23:20:05.432Z,11.30
2019-04-22T23:22:51.000Z,11.30
2019-04-22T23:25:35.212Z,11.30
2019-04-22T23:28:28.224Z,11.20
2019-04-22T23:31:24.010Z,11.20
2019-04-22T23:34:01.498Z,11.20
2019-04-22T23:36:54.214Z,11.10
2019-04-22T23:39:35.615Z,11.10
2019-04-22T23:42:19.006Z,11.10
2019-04-22T23:44:31.803Z,11.10
2019-04-22T23:46:58.495Z,11.10
2019-04-22T23:49:30.261Z,11.10
2019-04-22T23:52:13.303Z,11.10
2019-04-22T23:54:49.020Z,11.00
2019-04-22T23:57:15.559Z,11.00
